Time;durP1;ratioP1;P1;durP2;ratioP2;P2;SDS_P1;SDS_P2;PMS_P1;PMS_P2;Temp;Humidity;BMP_temperature;BMP_pressure;BME280_temperature;BME280_humidity;BME280_pressure;Samples;Min_cycle;Max_cycle;Signal;HPM_P1;HPM_P2
2023/07/30 00:01:14;;;;;;;13.02;5.93;;;25.10;90.60;;;;;;4939054;29;20506;-78
2023/07/30 00:03:41;;;;;;;11.50;6.63;;;25.10;90.70;;;;;;4935265;29;20475;-78
2023/07/30 00:06:08;;;;;;;9.32;5.35;;;25.10;90.90;;;;;;4950036;28;20395;-79
2023/07/30 00:08:36;;;;;;;9.50;5.40;;;25.00;90.90;;;;;;4931017;29;20086;-77
2023/07/30 00:11:03;;;;;;;11.88;5.78;;;25.00;91.50;;;;;;4959104;28;20410;-77
2023/07/30 00:13:31;;;;;;;11.85;6.00;;;25.00;91.40;;;;;;4956330;28;20047;-78
2023/07/30 00:15:58;;;;;;;11.82;6.05;;;25.00;91.60;;;;;;4965040;28;20191;-77
2023/07/30 00:18:25;;;;;;;10.98;5.97;;;25.00;91.50;;;;;;4956030;28;20047;-77
2023/07/30 00:20:56;;;;;;;11.73;5.85;;;25.00;91.80;;;;;;4938904;29;20102;-76
2023/07/30 00:23:23;;;;;;;10.55;6.05;;;24.80;91.50;;;;;;4940623;28;20059;-77
2023/07/30 00:25:53;;;;;;;15.70;9.15;;;24.80;91.40;;;;;;4963069;28;20047;-77
2023/07/30 00:28:20;;;;;;;10.18;7.00;;;24.80;91.40;;;;;;4961396;28;20063;-78
2023/07/30 00:30:48;;;;;;;9.25;6.07;;;24.80;91.40;;;;;;4955593;29;20043;-78
2023/07/30 00:33:15;;;;;;;14.68;6.97;;;24.80;91.40;;;;;;4942851;28;20415;-77
2023/07/30 00:35:42;;;;;;;12.20;6.50;;;24.80;91.20;;;;;;4945395;29;20098;-77
2023/07/30 00:38:10;;;;;;;8.52;5.53;;;24.70;91.20;;;;;;4961507;28;20090;-76
2023/07/30 00:40:41;;;;;;;11.20;5.88;;;24.60;91.30;;;;;;4961484;28;20131;-76
2023/07/30 00:43:08;;;;;;;12.80;6.38;;;24.60;91.30;;;;;;4962752;28;20047;-77
2023/07/30 00:45:38;;;;;;;7.88;5.35;;;24.60;91.20;;;;;;4959686;28;20062;-78
2023/07/30 00:48:05;;;;;;;14.57;5.80;;;24.60;91.20;;;;;;4960910;28;20455;-77
2023/07/30 00:50:33;;;;;;;9.63;5.25;;;24.50;91.30;;;;;;4956783;28;20051;-76
2023/07/30 00:53:00;;;;;;;11.60;5.57;;;24.50;91.40;;;;;;4962118;28;20059;-77
2023/07/30 00:55:29;;;;;;;10.68;5.90;;;24.50;91.60;;;;;;4959414;28;20063;-75
2023/07/30 00:57:58;;;;;;;9.32;5.38;;;24.40;91.70;;;;;;4959870;28;20395;-76
2023/07/30 01:00:26;;;;;;;11.73;6.45;;;24.50;91.70;;;;;;4944123;28;20054;-76
2023/07/30 01:02:55;;;;;;;10.15;5.65;;;24.50;91.90;;;;;;4954664;28;20146;-76
2023/07/30 01:05:23;;;;;;;11.23;5.90;;;24.40;92.20;;;;;;4954408;28;20418;-76
2023/07/30 01:07:55;;;;;;;11.18;5.70;;;24.40;92.60;;;;;;4953429;29;20059;-77
2023/07/30 01:10:24;;;;;;;11.07;5.05;;;24.20;92.70;;;;;;4962278;28;20039;-77
2023/07/30 01:12:52;;;;;;;12.75;5.40;;;24.10;93.40;;;;;;4960484;28;20447;-78
2023/07/30 01:15:20;;;;;;;10.18;5.35;;;24.10;93.40;;;;;;4967865;28;20106;-78
2023/07/30 01:17:47;;;;;;;10.43;5.38;;;24.10;93.30;;;;;;4941638;29;20131;-78
2023/07/30 01:20:14;;;;;;;11.68;6.20;;;24.20;93.70;;;;;;4961966;28;20067;-77
2023/07/30 01:22:41;;;;;;;11.27;5.35;;;24.10;93.40;;;;;;4940126;29;20051;-77
2023/07/30 01:25:09;;;;;;;11.88;5.63;;;23.90;93.40;;;;;;4954856;28;20055;-77
2023/07/30 01:27:48;;;;;;;11.40;5.97;;;23.80;93.70;;;;;;4953966;28;20058;-77
2023/07/30 01:30:22;;;;;;;12.60;6.72;;;23.80;93.40;;;;;;4954468;28;20044;-78
2023/07/30 01:32:51;;;;;;;13.02;6.03;;;23.80;93.50;;;;;;4933406;28;20507;-78
2023/07/30 01:35:22;;;;;;;10.68;5.78;;;23.80;93.60;;;;;;4968088;28;20051;-76
2023/07/30 01:37:51;;;;;;;10.23;5.82;;;23.90;93.60;;;;;;4941422;28;20078;-78
2023/07/30 01:40:19;;;;;;;10.15;5.68;;;23.90;93.90;;;;;;4961468;28;20147;-77
2023/07/30 01:42:48;;;;;;;10.77;5.78;;;23.80;93.80;;;;;;4955561;28;20106;-78
2023/07/30 01:45:16;;;;;;;10.18;6.03;;;23.90;94.10;;;;;;4961940;28;20055;-78
2023/07/30 01:47:43;;;;;;;12.07;6.53;;;23.80;94.10;;;;;;4936795;29;20130;-78
2023/07/30 01:50:10;;;;;;;11.30;5.80;;;23.60;94.00;;;;;;4953675;28;20135;-78
2023/07/30 01:52:38;;;;;;;11.00;5.97;;;23.60;94.50;;;;;;4958413;28;20082;-79
2023/07/30 01:55:05;;;;;;;9.90;5.93;;;23.60;94.50;;;;;;4956057;28;20047;-76
2023/07/30 01:57:33;;;;;;;10.40;5.63;;;23.50;94.70;;;;;;4953764;29;20110;-78
2023/07/30 02:00:00;;;;;;;15.02;6.30;;;23.60;94.50;;;;;;4960464;28;20392;-77
2023/07/30 02:02:28;;;;;;;10.40;5.43;;;23.70;94.40;;;;;;4956310;28;20050;-78
2023/07/30 02:04:56;;;;;;;12.40;6.70;;;23.70;94.40;;;;;;4956790;28;20079;-76
2023/07/30 02:07:23;;;;;;;13.30;6.53;;;23.80;94.70;;;;;;4947445;28;20491;-79
2023/07/30 02:09:50;;;;;;;10.82;5.60;;;23.80;94.60;;;;;;4957122;28;20142;-77
2023/07/30 02:12:17;;;;;;;10.40;5.55;;;23.70;94.70;;;;;;4953201;28;20043;-78
2023/07/30 02:14:45;;;;;;;9.98;5.38;;;23.70;94.50;;;;;;4938621;29;20053;-77
2023/07/30 02:17:12;;;;;;;8.95;5.90;;;23.50;94.40;;;;;;4938342;28;20051;-77
2023/07/30 02:19:39;;;;;;;9.20;5.30;;;23.50;94.40;;;;;;4960217;28;20046;-77
2023/07/30 02:22:07;;;;;;;14.32;5.28;;;23.50;94.40;;;;;;4930677;29;20646;-78
2023/07/30 02:24:34;;;;;;;8.02;5.32;;;23.50;94.50;;;;;;4958322;28;20558;-79
2023/07/30 02:27:01;;;;;;;7.65;4.65;;;23.50;94.50;;;;;;4955933;28;20038;-78
2023/07/30 02:29:28;;;;;;;8.25;4.93;;;23.50;94.60;;;;;;4939480;29;20557;-79
2023/07/30 02:31:56;;;;;;;10.82;5.32;;;23.60;94.40;;;;;;4935877;29;20083;-78
2023/07/30 02:34:23;;;;;;;7.57;4.90;;;23.40;94.50;;;;;;4952721;28;20439;-76
2023/07/30 02:36:50;;;;;;;13.10;6.25;;;23.40;94.70;;;;;;4942286;28;20458;-77
2023/07/30 02:39:18;;;;;;;11.48;5.35;;;23.40;94.80;;;;;;4935446;29;20131;-77
2023/07/30 02:41:45;;;;;;;8.02;4.82;;;23.40;94.60;;;;;;4961441;28;20388;-78
2023/07/30 02:44:12;;;;;;;8.40;5.18;;;23.30;94.80;;;;;;4960621;28;20524;-79
2023/07/30 02:46:39;;;;;;;6.72;4.65;;;23.20;95.20;;;;;;4939260;29;20094;-78
2023/07/30 02:49:08;;;;;;;8.63;4.93;;;23.10;95.40;;;;;;4939279;28;20055;-78
2023/07/30 02:51:36;;;;;;;9.77;4.80;;;23.10;95.80;;;;;;4952900;28;20050;-78
2023/07/30 02:54:07;;;;;;;9.90;5.07;;;23.20;95.90;;;;;;4955459;28;20480;-77
2023/07/30 02:56:35;;;;;;;7.70;5.25;;;23.00;96.10;;;;;;4960843;28;20061;-76
2023/07/30 02:59:02;;;;;;;8.45;4.75;;;23.10;96.20;;;;;;4952107;28;20551;-77
2023/07/30 03:01:29;;;;;;;7.65;4.63;;;23.20;96.60;;;;;;4921085;28;20051;-77
2023/07/30 03:03:56;;;;;;;8.90;4.95;;;23.30;96.70;;;;;;4954030;28;20410;-77
2023/07/30 03:06:24;;;;;;;7.95;5.07;;;23.20;96.60;;;;;;4954011;28;20051;-77
2023/07/30 03:08:51;;;;;;;9.02;4.97;;;23.20;96.80;;;;;;4959661;28;20113;-78
2023/07/30 03:11:18;;;;;;;11.48;5.25;;;23.10;97.00;;;;;;4939778;29;20083;-79
2023/07/30 03:13:46;;;;;;;12.73;5.10;;;23.00;97.00;;;;;;4952507;28;20130;-79
2023/07/30 03:16:13;;;;;;;9.95;6.00;;;23.00;97.40;;;;;;4959086;28;20054;-78
2023/07/30 03:18:40;;;;;;;13.13;5.70;;;23.10;97.40;;;;;;4952553;28;20051;-77
2023/07/30 03:21:07;;;;;;;12.35;6.57;;;23.10;97.60;;;;;;4952751;28;20044;-77
2023/07/30 03:23:34;;;;;;;11.73;7.80;;;23.00;97.70;;;;;;4959041;28;20122;-77
2023/07/30 03:26:02;;;;;;;13.02;7.45;;;22.80;98.40;;;;;;4955182;28;20142;-76
2023/07/30 03:28:29;;;;;;;13.80;6.88;;;22.80;98.70;;;;;;4935378;29;20122;-76
2023/07/30 03:30:56;;;;;;;12.60;6.47;;;22.80;98.60;;;;;;4955926;28;20070;-76
2023/07/30 03:33:24;;;;;;;11.55;6.25;;;22.80;98.90;;;;;;4957796;28;20055;-76
2023/07/30 03:35:51;;;;;;;14.45;6.40;;;22.80;99.00;;;;;;4961436;28;20051;-77
2023/07/30 03:38:18;;;;;;;13.02;5.93;;;22.60;99.20;;;;;;4916439;29;20063;-77
2023/07/30 03:40:46;;;;;;;11.10;5.45;;;22.60;99.40;;;;;;4952307;28;20047;-78
2023/07/30 03:43:13;;;;;;;11.52;6.43;;;22.60;99.60;;;;;;4952633;28;20047;-77
2023/07/30 03:45:40;;;;;;;14.38;5.82;;;22.60;99.40;;;;;;4952590;28;20114;-77
2023/07/30 03:48:08;;;;;;;9.02;5.35;;;22.60;99.30;;;;;;4935891;29;20059;-77
2023/07/30 03:50:35;;;;;;;9.88;5.70;;;22.70;99.40;;;;;;4954368;28;20130;-76
2023/07/30 03:53:02;;;;;;;8.68;5.32;;;22.70;99.20;;;;;;4957018;28;20055;-75
2023/07/30 03:55:30;;;;;;;10.63;5.45;;;22.70;99.20;;;;;;4962862;28;20094;-77
2023/07/30 03:57:58;;;;;;;8.00;5.05;;;22.50;99.80;;;;;;4959566;28;20055;-76
2023/07/30 04:00:25;;;;;;;9.63;5.13;;;22.70;99.90;;;;;;4957972;28;20047;-77
2023/07/30 04:02:53;;;;;;;9.85;5.80;;;22.60;99.90;;;;;;4941994;28;20059;-77
2023/07/30 04:05:20;;;;;;;13.63;7.03;;;22.70;99.90;;;;;;4968023;28;20082;-76
2023/07/30 04:07:47;;;;;;;14.30;7.43;;;22.70;99.90;;;;;;4961397;28;20444;-75
2023/07/30 04:10:14;;;;;;;14.68;7.75;;;22.60;99.90;;;;;;4960929;28;20057;-78
2023/07/30 04:12:42;;;;;;;13.25;8.05;;;22.70;99.90;;;;;;4970020;28;20438;-78
2023/07/30 04:15:09;;;;;;;20.20;9.82;;;22.70;99.90;;;;;;4947072;28;20071;-78
2023/07/30 04:17:37;;;;;;;14.23;8.85;;;22.70;99.90;;;;;;4956713;28;20129;-76
2023/07/30 04:20:05;;;;;;;12.85;8.48;;;22.60;99.90;;;;;;4959921;28;20044;-78
2023/07/30 04:22:33;;;;;;;14.05;7.75;;;22.60;99.90;;;;;;4959251;28;20051;-77
2023/07/30 04:25:00;;;;;;;11.93;7.43;;;22.70;99.90;;;;;;4944132;29;20141;-78
2023/07/30 04:27:27;;;;;;;11.68;6.50;;;22.70;99.90;;;;;;4962902;28;20065;-78
2023/07/30 04:29:58;;;;;;;13.52;6.53;;;22.80;99.90;;;;;;4944010;28;20219;-77
2023/07/30 04:32:25;;;;;;;11.48;6.10;;;22.80;99.90;;;;;;4937548;29;20083;-79
2023/07/30 04:34:52;;;;;;;9.90;6.22;;;22.70;99.90;;;;;;4938337;29;20055;-78
2023/07/30 04:37:21;;;;;;;10.50;6.45;;;22.60;99.90;;;;;;4955784;29;20410;-78
2023/07/30 04:39:49;;;;;;;11.13;6.30;;;22.80;99.90;;;;;;4962904;28;20368;-79
2023/07/30 04:42:16;;;;;;;10.30;6.50;;;22.80;99.90;;;;;;4958247;28;20137;-78
2023/07/30 04:44:44;;;;;;;12.65;6.55;;;22.90;99.90;;;;;;4923042;29;20078;-78
2023/07/30 04:47:12;;;;;;;13.85;6.53;;;22.90;99.90;;;;;;4955110;28;20638;-77
2023/07/30 04:49:40;;;;;;;10.90;6.30;;;22.80;99.90;;;;;;4937555;29;20466;-77
2023/07/30 04:52:08;;;;;;;9.32;5.88;;;22.90;99.90;;;;;;4949048;29;20138;-77
2023/07/30 04:54:38;;;;;;;13.05;7.57;;;22.90;99.90;;;;;;4955477;28;20094;-78
2023/07/30 04:57:05;;;;;;;10.18;5.82;;;23.00;99.90;;;;;;4934798;29;20500;-78
2023/07/30 04:59:36;;;;;;;10.60;5.78;;;23.10;99.90;;;;;;4948563;29;20084;-77
2023/07/30 05:02:03;;;;;;;12.82;5.68;;;23.10;99.90;;;;;;4954793;28;20134;-77
2023/07/30 05:04:31;;;;;;;9.73;5.50;;;23.10;99.90;;;;;;4954932;28;20066;-77
2023/07/30 05:06:58;;;;;;;11.23;5.93;;;23.20;99.90;;;;;;4955205;29;20047;-77
2023/07/30 05:09:25;;;;;;;10.35;6.13;;;23.20;99.90;;;;;;4937946;28;20051;-77
2023/07/30 05:11:52;;;;;;;10.23;6.28;;;23.10;99.90;;;;;;4934978;29;20058;-77
2023/07/30 05:14:20;;;;;;;12.30;5.78;;;23.30;99.90;;;;;;4949497;28;20118;-78
2023/07/30 05:16:47;;;;;;;10.15;5.55;;;23.40;99.90;;;;;;4955253;28;20053;-78
2023/07/30 05:19:15;;;;;;;11.32;6.35;;;23.50;99.90;;;;;;4954136;28;20055;-79
2023/07/30 05:21:42;;;;;;;11.45;6.18;;;23.40;99.90;;;;;;4962198;28;20054;-77
2023/07/30 05:24:09;;;;;;;9.52;5.80;;;23.50;99.90;;;;;;4959253;28;20051;-78
2023/07/30 05:26:37;;;;;;;11.40;6.28;;;23.70;99.90;;;;;;4937823;29;20566;-78
2023/07/30 05:29:04;;;;;;;11.32;6.18;;;23.70;99.90;;;;;;4952171;28;20135;-76
2023/07/30 05:31:31;;;;;;;10.65;5.80;;;23.70;99.90;;;;;;4944502;28;20440;-77
2023/07/30 05:33:59;;;;;;;9.65;5.80;;;23.70;99.90;;;;;;4921346;29;20051;-77
2023/07/30 05:36:26;;;;;;;8.43;5.03;;;23.80;99.70;;;;;;4954355;28;20051;-77
2023/07/30 05:38:53;;;;;;;11.48;5.63;;;23.90;99.30;;;;;;4937147;29;20086;-78
2023/07/30 05:41:21;;;;;;;13.68;5.97;;;24.00;99.40;;;;;;4937452;29;20051;-77
2023/07/30 05:43:51;;;;;;;10.40;5.68;;;24.00;99.20;;;;;;4921083;29;20062;-77
2023/07/30 05:46:18;;;;;;;;;;;24.10;99.00;;;;;;4934995;29;20404;-78
2023/07/30 05:48:46;;;;;;;12.73;5.95;;;24.10;99.00;;;;;;4934646;29;19923;-79
2023/07/30 05:51:14;;;;;;;11.45;5.82;;;24.10;99.20;;;;;;4938078;29;20078;-79
2023/07/30 05:53:45;;;;;;;10.77;5.70;;;24.00;98.80;;;;;;4949673;28;20070;-79
2023/07/30 05:56:14;;;;;;;13.25;6.10;;;24.10;99.40;;;;;;4945534;29;20113;-78
2023/07/30 05:58:41;;;;;;;13.73;5.80;;;24.20;98.70;;;;;;4921185;28;20172;-77
2023/07/30 06:01:09;;;;;;;10.45;5.65;;;24.30;98.70;;;;;;4962739;28;20067;-76
2023/07/30 06:03:36;;;;;;;26.98;20.48;;;24.50;98.60;;;;;;4953591;28;20047;-77
2023/07/30 06:06:03;;;;;;;37.15;26.05;;;24.50;98.10;;;;;;4955209;28;20059;-76
2023/07/30 06:08:31;;;;;;;28.80;19.38;;;24.70;98.30;;;;;;4949293;28;20126;-77
2023/07/30 06:11:04;;;;;;;19.05;11.70;;;24.60;98.40;;;;;;4936053;29;20407;-76
2023/07/30 06:13:31;;;;;;;12.88;7.68;;;24.70;98.20;;;;;;4952990;28;20130;-79
2023/07/30 06:15:59;;;;;;;26.27;17.67;;;24.90;98.10;;;;;;4941349;28;20054;-76
2023/07/30 06:18:26;;;;;;;59.85;41.17;;;24.90;97.80;;;;;;4940624;28;20459;-76
2023/07/30 06:20:54;;;;;;;43.63;31.92;;;25.00;97.70;;;;;;4932228;29;20082;-77
2023/07/30 06:23:21;;;;;;;17.13;10.18;;;25.00;97.70;;;;;;4926373;28;20553;-76
2023/07/30 06:25:48;;;;;;;12.95;7.05;;;25.00;97.40;;;;;;4967937;28;20051;-76
2023/07/30 06:28:16;;;;;;;29.88;21.75;;;25.10;97.30;;;;;;4963126;28;20130;-75
2023/07/30 06:30:44;;;;;;;32.72;25.08;;;25.00;97.90;;;;;;4962964;28;20054;-77
2023/07/30 06:33:11;;;;;;;30.83;22.35;;;24.90;98.00;;;;;;4953105;28;20050;-75
2023/07/30 06:35:38;;;;;;;14.73;9.82;;;25.00;98.20;;;;;;4926815;29;20471;-76
2023/07/30 06:38:08;;;;;;;13.20;7.68;;;25.10;97.80;;;;;;4936115;28;20459;-76
2023/07/30 06:40:35;;;;;;;8.35;6.50;;;25.20;97.60;;;;;;4936653;29;20063;-77
2023/07/30 06:43:02;;;;;;;9.27;6.18;;;25.30;97.50;;;;;;4953892;28;20054;-77
2023/07/30 06:45:30;;;;;;;10.75;6.15;;;25.10;97.80;;;;;;4949261;28;20505;-76
2023/07/30 06:47:57;;;;;;;12.98;7.22;;;25.00;98.00;;;;;;4936527;29;20415;-75
2023/07/30 06:50:25;;;;;;;16.75;11.07;;;25.10;98.00;;;;;;4964689;28;20056;-74
2023/07/30 06:52:52;;;;;;;47.35;34.10;;;25.20;97.60;;;;;;4962504;28;20178;-74
2023/07/30 06:55:19;;;;;;;49.95;33.75;;;25.30;97.40;;;;;;4955021;28;20043;-79
2023/07/30 06:57:47;;;;;;;39.35;31.58;;;25.30;97.30;;;;;;4953508;29;20389;-75
2023/07/30 07:00:21;;;;;;;118.38;90.97;;;25.30;97.20;;;;;;4953151;28;20074;-77
2023/07/30 07:02:49;;;;;;;79.55;55.33;;;25.30;97.40;;;;;;4953333;28;20070;-77
2023/07/30 07:05:16;;;;;;;17.08;12.30;;;25.30;97.30;;;;;;4958030;28;20498;-75
2023/07/30 07:07:44;;;;;;;13.75;8.32;;;25.20;97.00;;;;;;4941324;29;20479;-75
2023/07/30 07:10:11;;;;;;;14.60;9.70;;;25.30;96.80;;;;;;4965131;28;20054;-75
2023/07/30 07:12:39;;;;;;;11.60;8.15;;;25.40;96.80;;;;;;4952884;28;20056;-76
2023/07/30 07:15:07;;;;;;;12.13;8.98;;;25.50;96.80;;;;;;4958627;28;20456;-78
2023/07/30 07:17:35;;;;;;;10.38;6.32;;;25.50;96.40;;;;;;4957414;28;20051;-78
2023/07/30 07:20:06;;;;;;;11.10;7.40;;;25.60;95.90;;;;;;4936907;29;20043;-79
2023/07/30 07:22:34;;;;;;;13.38;6.78;;;25.70;95.50;;;;;;4910809;28;20138;-77
2023/07/30 07:25:02;;;;;;;8.27;5.50;;;25.80;94.80;;;;;;4934419;29;20142;-76
2023/07/30 07:27:30;;;;;;;10.05;6.60;;;25.80;94.40;;;;;;4956572;28;20040;-77
2023/07/30 07:29:57;;;;;;;10.25;5.65;;;25.80;94.50;;;;;;4958188;28;20530;-76
2023/07/30 07:32:24;;;;;;;10.38;6.45;;;25.80;94.30;;;;;;4955351;28;20050;-78
2023/07/30 07:34:52;;;;;;;11.27;5.88;;;25.80;93.80;;;;;;4956294;29;20079;-76
2023/07/30 07:37:19;;;;;;;12.82;6.25;;;25.80;94.00;;;;;;4965888;28;20098;-77
2023/07/30 07:39:47;;;;;;;10.88;5.97;;;26.00;94.00;;;;;;4956959;29;20380;-77
2023/07/30 07:42:14;;;;;;;11.15;5.60;;;26.00;93.50;;;;;;4956710;28;20110;-76
2023/07/30 07:44:43;;;;;;;10.50;5.97;;;26.10;93.20;;;;;;4956984;29;20483;-78
2023/07/30 07:47:11;;;;;;;13.13;6.32;;;26.10;93.10;;;;;;4930389;28;20507;-76
2023/07/30 07:49:38;;;;;;;8.15;5.10;;;26.10;93.00;;;;;;4957923;28;20078;-78
2023/07/30 07:52:06;;;;;;;8.80;6.10;;;26.20;92.80;;;;;;4936350;29;20135;-77
2023/07/30 07:54:33;;;;;;;8.68;5.00;;;26.30;92.70;;;;;;4922123;29;20142;-77
2023/07/30 07:57:00;;;;;;;7.93;5.18;;;26.40;92.60;;;;;;4939282;29;20054;-77
2023/07/30 07:59:28;;;;;;;10.65;5.05;;;26.50;92.40;;;;;;4938309;29;20103;-77
2023/07/30 08:01:55;;;;;;;6.72;4.60;;;26.40;92.30;;;;;;4955693;28;20446;-76
2023/07/30 08:04:23;;;;;;;8.55;4.90;;;26.50;92.00;;;;;;4957202;28;20056;-76
2023/07/30 08:06:51;;;;;;;7.88;5.07;;;26.60;91.60;;;;;;4951956;28;20368;-76
2023/07/30 08:09:18;;;;;;;10.55;4.88;;;26.70;91.50;;;;;;4963136;28;20051;-77
2023/07/30 08:11:45;;;;;;;8.30;5.40;;;26.70;91.30;;;;;;4951803;28;20161;-75
2023/07/30 08:14:15;;;;;;;7.85;4.70;;;26.80;91.10;;;;;;4956144;28;20102;-78
2023/07/30 08:16:42;;;;;;;9.32;4.05;;;26.80;91.10;;;;;;4955952;28;20431;-79
2023/07/30 08:19:09;;;;;;;10.40;5.38;;;26.80;90.60;;;;;;4956574;28;20059;-77
2023/07/30 08:21:37;;;;;;;6.70;4.45;;;26.70;90.50;;;;;;4956306;28;20075;-77
2023/07/30 08:24:05;;;;;;;6.28;4.10;;;26.70;90.60;;;;;;4956500;29;20079;-76
2023/07/30 08:26:32;;;;;;;8.43;4.75;;;26.80;90.60;;;;;;4956253;28;20126;-75
2023/07/30 08:28:59;;;;;;;7.20;4.80;;;27.00;90.60;;;;;;4955796;28;20051;-77
2023/07/30 08:31:27;;;;;;;6.70;4.47;;;27.10;90.60;;;;;;4938916;29;20122;-77
2023/07/30 08:33:54;;;;;;;8.85;5.28;;;27.20;90.20;;;;;;4955669;28;20452;-76
2023/07/30 08:36:21;;;;;;;9.65;5.10;;;27.20;90.20;;;;;;4954943;28;20047;-78
2023/07/30 08:38:50;;;;;;;7.43;5.00;;;27.40;90.10;;;;;;4955443;28;20043;-76
2023/07/30 08:41:17;;;;;;;9.60;5.25;;;27.50;88.80;;;;;;4939307;29;20047;-76
2023/07/30 08:43:48;;;;;;;8.32;5.22;;;27.50;87.50;;;;;;4955233;28;20082;-77
2023/07/30 08:46:16;;;;;;;7.00;4.30;;;27.40;87.30;;;;;;4943487;29;20051;-77
2023/07/30 08:48:44;;;;;;;5.80;4.05;;;27.60;87.70;;;;;;4955536;28;20058;-77
2023/07/30 08:51:15;;;;;;;9.77;4.45;;;27.50;86.60;;;;;;4956390;28;20059;-77
2023/07/30 08:53:42;;;;;;;7.43;4.45;;;27.70;87.10;;;;;;4930187;29;20551;-77
2023/07/30 08:56:11;;;;;;;7.28;4.38;;;27.70;86.80;;;;;;4930912;29;20055;-76
2023/07/30 08:58:38;;;;;;;7.47;4.63;;;27.80;86.20;;;;;;4954483;28;20558;-76
2023/07/30 09:01:10;;;;;;;6.97;4.07;;;27.70;84.10;;;;;;4926508;29;20083;-77
2023/07/30 09:03:39;;;;;;;7.25;4.68;;;27.70;84.20;;;;;;4935530;29;20083;-76
2023/07/30 09:06:07;;;;;;;7.05;4.40;;;27.70;84.10;;;;;;4930610;29;20062;-77
2023/07/30 09:08:35;;;;;;;7.38;4.50;;;27.60;83.70;;;;;;4935268;29;20075;-75
2023/07/30 09:11:11;;;;;;;9.45;4.07;;;27.80;84.00;;;;;;4921888;29;20063;-76
2023/07/30 09:13:41;;;;;;;7.53;4.20;;;27.90;83.80;;;;;;4955754;29;20047;-77
2023/07/30 09:16:13;;;;;;;10.32;4.40;;;28.00;84.00;;;;;;4955467;28;20101;-77
2023/07/30 09:18:46;;;;;;;7.25;4.45;;;28.20;83.40;;;;;;4965543;28;20076;-78
2023/07/30 09:21:16;;;;;;;8.05;4.25;;;28.20;82.40;;;;;;4935364;29;20051;-77
2023/07/30 09:23:46;;;;;;;11.35;4.05;;;28.30;81.30;;;;;;4949102;28;20086;-76
2023/07/30 09:26:14;;;;;;;6.30;4.07;;;28.30;82.00;;;;;;4955910;28;20039;-77
2023/07/30 09:28:41;;;;;;;7.82;4.85;;;28.50;82.00;;;;;;4938381;29;20078;-76
2023/07/30 09:31:09;;;;;;;6.80;3.90;;;28.60;82.00;;;;;;4938207;29;20519;-78
2023/07/30 09:33:42;;;;;;;8.73;4.93;;;28.90;82.90;;;;;;4954746;28;20059;-77
2023/07/30 09:36:09;;;;;;;6.32;3.90;;;29.10;82.00;;;;;;4939350;29;20075;-77
2023/07/30 09:38:41;;;;;;;8.15;4.40;;;29.20;81.50;;;;;;4954683;28;20051;-78
2023/07/30 09:41:11;;;;;;;7.00;3.97;;;29.40;80.50;;;;;;4955146;28;20048;-76
2023/07/30 09:43:39;;;;;;;8.55;4.40;;;29.50;79.30;;;;;;4954248;28;20130;-77
2023/07/30 09:46:07;;;;;;;6.97;4.18;;;29.30;78.70;;;;;;4937569;29;20091;-77
2023/07/30 09:48:35;;;;;;;6.43;3.78;;;29.20;78.40;;;;;;4954147;28;20055;-78
2023/07/30 09:51:03;;;;;;;9.38;3.63;;;29.30;78.10;;;;;;4955063;28;20114;-77
2023/07/30 09:53:34;;;;;;;6.68;4.07;;;29.30;78.50;;;;;;4939625;28;20079;-78
2023/07/30 09:56:08;;;;;;;6.55;3.95;;;29.50;77.70;;;;;;4955064;29;20051;-76
2023/07/30 09:58:37;;;;;;;7.25;3.88;;;29.50;77.90;;;;;;4957911;28;20058;-77
2023/07/30 10:01:06;;;;;;;5.82;3.53;;;29.50;77.00;;;;;;4963290;28;20106;-77
2023/07/30 10:03:35;;;;;;;6.90;3.70;;;29.60;76.90;;;;;;4953746;28;20495;-78
2023/07/30 10:06:04;;;;;;;11.93;3.97;;;29.60;76.80;;;;;;4967247;28;20078;-78
2023/07/30 10:08:37;;;;;;;5.93;3.90;;;29.90;76.20;;;;;;4936958;29;20127;-77
2023/07/30 10:11:08;;;;;;;7.60;3.90;;;30.10;75.80;;;;;;4954046;28;20477;-77
2023/07/30 10:13:37;;;;;;;6.63;3.92;;;30.30;76.20;;;;;;4953384;28;20078;-76
2023/07/30 10:16:11;;;;;;;;;;;30.40;74.50;;;;;;4954131;28;20627;-78
2023/07/30 10:18:40;;;;;;;6.53;3.80;;;30.40;74.20;;;;;;4963639;28;20437;-78
2023/07/30 10:21:21;;;;;;;6.65;4.07;;;30.40;71.90;;;;;;4967038;28;20122;-77
2023/07/30 10:24:04;;;;;;;7.35;4.90;;;30.40;72.90;;;;;;4964918;28;20057;-76
2023/07/30 10:26:35;;;;;;;11.52;4.03;;;30.50;73.40;;;;;;4954565;28;20439;-78
2023/07/30 10:29:23;;;;;;;60.13;46.55;;;30.70;72.70;;;;;;4956586;28;20451;-78
2023/07/30 10:31:56;;;;;;;39.25;29.55;;;30.70;71.60;;;;;;4965533;28;20051;-78
2023/07/30 10:34:42;;;;;;;16.13;11.50;;;30.70;69.80;;;;;;4950610;28;20055;-76
2023/07/30 10:37:10;;;;;;;17.88;13.77;;;30.80;70.50;;;;;;4967635;28;20479;-77
2023/07/30 10:39:37;;;;;;;134.27;91.97;;;31.00;70.90;;;;;;4961240;28;20059;-76
2023/07/30 10:42:08;;;;;;;27.50;19.95;;;30.90;70.60;;;;;;4949611;28;20047;-77
2023/07/30 10:44:35;;;;;;;17.38;12.55;;;31.00;71.90;;;;;;4961696;28;20054;-77
2023/07/30 10:47:03;;;;;;;18.30;14.02;;;31.20;70.50;;;;;;4959207;28;20122;-76
2023/07/30 10:49:37;;;;;;;12.70;9.25;;;31.20;71.70;;;;;;4938572;28;20048;-77
2023/07/30 10:52:06;;;;;;;8.85;5.20;;;31.40;70.70;;;;;;4957649;28;20047;-75
2023/07/30 10:54:36;;;;;;;9.82;6.70;;;31.30;69.20;;;;;;4956123;28;20039;-77
2023/07/30 10:57:04;;;;;;;10.43;7.15;;;31.10;69.50;;;;;;4961263;28;20048;-76
2023/07/30 10:59:38;;;;;;;27.85;22.40;;;31.20;70.50;;;;;;4959828;28;20051;-80
2023/07/30 11:02:08;;;;;;;11.93;8.60;;;31.20;70.90;;;;;;4954047;28;20055;-77
2023/07/30 11:04:35;;;;;;;8.48;5.00;;;31.30;69.20;;;;;;4947529;28;20426;-75
2023/07/30 11:07:03;;;;;;;10.07;5.82;;;31.40;69.20;;;;;;4942748;28;20045;-77
2023/07/30 11:09:31;;;;;;;8.45;5.75;;;31.60;69.00;;;;;;4949371;28;20133;-78
2023/07/30 11:11:58;;;;;;;9.85;5.28;;;31.70;68.90;;;;;;4961724;28;20051;-79
2023/07/30 11:14:28;;;;;;;9.90;6.80;;;31.70;69.50;;;;;;4932939;28;20051;-77
2023/07/30 11:16:59;;;;;;;9.95;7.45;;;31.90;69.70;;;;;;4950834;28;20209;-76
2023/07/30 11:19:28;;;;;;;7.70;4.47;;;31.90;69.30;;;;;;4960326;28;20126;-75
2023/07/30 11:21:57;;;;;;;8.95;5.18;;;31.80;69.30;;;;;;4951356;28;20079;-77
2023/07/30 11:24:37;;;;;;;7.03;4.50;;;31.90;69.90;;;;;;4934344;28;20396;-75
2023/07/30 11:27:05;;;;;;;9.65;4.13;;;31.80;68.90;;;;;;4956563;28;20102;-75
2023/07/30 11:29:33;;;;;;;8.48;4.78;;;32.10;69.40;;;;;;4963458;28;20065;-75
2023/07/30 11:32:02;;;;;;;7.95;5.20;;;32.20;69.50;;;;;;4968529;28;20054;-76
2023/07/30 11:34:31;;;;;;;8.48;5.53;;;32.20;69.40;;;;;;4958162;28;20139;-75
2023/07/30 11:37:03;;;;;;;7.93;3.85;;;32.10;69.40;;;;;;4940256;28;20059;-77
2023/07/30 11:39:31;;;;;;;7.82;4.72;;;32.10;69.10;;;;;;4947767;28;20102;-78
2023/07/30 11:41:58;;;;;;;8.63;4.50;;;32.20;69.40;;;;;;4922116;29;20059;-77
2023/07/30 11:44:34;;;;;;;9.13;3.80;;;32.20;68.60;;;;;;4958604;28;20142;-76
2023/07/30 11:47:03;;;;;;;10.98;4.03;;;32.40;68.60;;;;;;4936443;29;20058;-76
2023/07/30 11:49:31;;;;;;;7.55;4.43;;;32.30;68.10;;;;;;4952997;28;20054;-77
2023/07/30 11:52:08;;;;;;;6.65;3.78;;;32.40;68.50;;;;;;4932010;28;20047;-78
2023/07/30 11:54:36;;;;;;;7.15;4.63;;;32.50;67.80;;;;;;4943093;29;20058;-75
2023/07/30 11:57:04;;;;;;;7.05;4.68;;;32.50;67.60;;;;;;4952409;28;20043;-78
2023/07/30 11:59:33;;;;;;;8.20;4.43;;;32.50;67.70;;;;;;4937176;28;20106;-74
2023/07/30 12:02:00;;;;;;;6.43;3.60;;;32.60;67.70;;;;;;4936193;29;20117;-78
2023/07/30 12:04:42;;;;;;;6.55;4.07;;;32.70;66.60;;;;;;4936818;29;20086;-75
2023/07/30 12:07:10;;;;;;;5.63;3.20;;;32.90;65.20;;;;;;4940785;29;20047;-78
2023/07/30 12:09:38;;;;;;;7.57;4.15;;;32.90;65.00;;;;;;4954196;28;20054;-77
2023/07/30 12:12:06;;;;;;;8.18;4.63;;;33.10;65.70;;;;;;4939624;28;20052;-76
2023/07/30 12:14:54;;;;;;;14.90;11.30;;;33.20;66.10;;;;;;4933873;29;20474;-78
2023/07/30 12:17:22;;;;;;;43.90;33.70;;;33.30;66.60;;;;;;4949293;28;20074;-76
2023/07/30 12:19:49;;;;;;;27.98;20.30;;;33.20;65.60;;;;;;4960672;28;20062;-79
2023/07/30 12:22:17;;;;;;;28.48;22.23;;;33.10;65.60;;;;;;4966765;28;20050;-77
2023/07/30 12:24:44;;;;;;;25.80;21.35;;;33.10;65.30;;;;;;4938899;28;20047;-77
2023/07/30 12:27:12;;;;;;;13.77;9.77;;;33.20;65.40;;;;;;4962202;28;20051;-77
2023/07/30 12:29:39;;;;;;;10.77;5.80;;;33.40;65.40;;;;;;4942991;28;20075;-77
2023/07/30 12:32:09;;;;;;;15.50;9.48;;;33.30;65.50;;;;;;4940970;29;20696;-78
2023/07/30 12:34:36;;;;;;;11.98;6.80;;;33.30;65.60;;;;;;4955965;28;20055;-81
2023/07/30 12:37:04;;;;;;;6.97;4.38;;;33.30;64.70;;;;;;4935005;29;20058;-79
2023/07/30 12:39:31;;;;;;;8.45;5.53;;;33.40;64.30;;;;;;4956720;28;20055;-79
2023/07/30 12:41:58;;;;;;;7.85;5.10;;;33.40;63.70;;;;;;4935895;29;20039;-78
2023/07/30 12:44:26;;;;;;;9.48;6.47;;;33.20;63.80;;;;;;4956145;28;20147;-77
2023/07/30 12:47:01;;;;;;;6.93;4.72;;;33.10;64.80;;;;;;4930708;28;20056;-75